Ashland, OR

7:27 AM PDT on June 29, 2016 (GMT -0700)
Rogue Valley International-Medford | Change Station
CLOSE
Current Station
Airport
Location: Medford,
Elevation: 1329 ft
Nearby Weather Stations

Elev 1329 ft 42.38 °N, 122.87 °W | Updated 34 minutes ago

Clear
Clear
62 °F
Feels Like 62 °F
N
4
Wind Variable Wind from NNE

Today
High -- | Low -- °F
--% Chance of Precip.
Yesterday
High -- | Low -- °F
Precip. -- in
5:37 AM 8:50 PM
Waning Crescent, 29% visible
Pressure 30.09 in
Visibility 10.0 miles
Clouds Clear
Dew Point 48 °F
Humidity 60%
Rainfall 0.00 in
Snow Depth 0 in
UV 1 out of 12
Pollen 7.40 out of 12
Air Quality Not available.
Flu Activity Not available.
METAR KMFR 291353Z 03003KT 10SM CLR 17/09 A3012 RMK AO2 SLP189 T01670089

More Conditions Fewer Conditions

Pressure 30.09 in
Visibility 10.0 miles
Clouds Clear
Dew Point 48 °F
Humidity 60%
Rainfall 0.00 in
Snow Depth 0 in
UV 1 out of 12
Pollen 7.40 out of 12
Air Quality Not available.
Flu Activity Not available.
METAR KMFR 291353Z 03003KT 10SM CLR 17/09 A3012 RMK AO2 SLP189 T01670089

More Conditions Fewer Conditions

10-Day Weather Forecast

Almanac

Astronomy

Jun. 29, 2016 Rise Set
Actual Time 5:37 AM PDT 8:50 PM PDT
Civil Twilight 5:03 AM PDT 9:25 PM PDT
Nautical Twilight 4:18 AM PDT 10:09 PM PDT
Astronomical Twilight 3:24 AM PDT 11:02 PM PDT
Moon 2:05 AM PDT 3:39 PM PDT
Length of Visible Light 16h 22m
Length of Day
15h 13m
Tomorrow will be 0m 38s shorter.
Waning Crescent, 29% of the Moon is Illuminated
Today
Waning Crescent
Jul 4
New
Jul 11
First Quarter
Jul 19
Full
Jul 26
Last Quarter

Yesterday's Extremes

State Highs State Lows

Community

WunderPhotos

Upload Photos

1,921,548 photos uploaded!

Nearby

Snow Depth

Station Depth Elevation
Big Red Mountain 0 in 6250 ft
Fish Lake 0 in 4665 ft
Billie Creek Divide 0 in 5300 ft
Sevenmile Marsh 0 in 6200 ft
Annie Springs 0 in 6020 ft

Earthquake Activity

City Distance Mag. Time & Date
Gold Beach, Oregon 96 miles 2.9 3:04 PM PDT
2016-06-27
Minimum magnitude displayed is 2.5.

Coastal Water Temperatures

Place Temperature
No Stations Reporting

Nearby Weather Stations